SLET/SRZ METAR and TAF weather

Enter ICAO airport designator
Station Type Date Time Source
SLET METAR 2021/05/10 15:00 UTC NOAA

SLET 101500Z 16009KT 9999 FEW027 SCT080 25/18 Q1019


Station Type Date Time Source
SLET Decoded METAR 2021/05/10 15:00 UTC NOAA

Santa Cruz / El Trompillo, Bolivia (SLET) 17-48S 063-11W 414M
May 10, 2021 - 11:00 AM EDT / 2021.05.10 1500 UTC
Wind: from the SSE (160 degrees) at 10 MPH (9 KT):0
Visibility: greater than 7 mile(s):0
Sky conditions: partly cloudy
Temperature: 77 F (25 C)
Dew Point: 64 F (18 C)
Relative Humidity: 65%
Pressure (altimeter): 30.09 in. Hg (1019 hPa)
ob: SLET 101500Z 16009KT 9999 FEW027 SCT080 25/18 Q1019
cycle: 15

Station Type Date Time Source
SLET TAF 2021/05/10 12:33 UTC NOAA

TAF TAF SLET 101000Z 1012/1112 VRB02KT 9999 NSC TX29/1019Z TN15/1110Z
BECMG 1015/1017 32010KT FEW020
BECMG 1022/1024 VRB02KT SCT017 SCT080
BECMG 1102/1104 17015KT SCT015 BKN070

Example: see airport list